This is the latest recevied weather packets stored in our database for station/object KD4KKF. If no packets are shown the sender has not sent any weather packets the latest 1 day(s).
| Time | Temp. | Humidity | Pressure | Rain* | Wind** | Luminosity | Snow |
|---|---|---|---|---|---|---|---|
| 1778030170 | 21.67° C | 80% | 1009.3 hPa | 0 mm | 0 m/s | 0 W/m² | - |
| 1778029866 | 21.67° C | 79% | 1009 hPa | 0 mm | 0 m/s | 0 W/m² | - |
| 1778029559 | 21.67° C | 79% | 1009.1 hPa | 0 mm | 1.34 m/s, 205° | 0 W/m² | - |
| 1778029256 | 21.67° C | 79% | 1009 hPa | 0 mm | 0.45 m/s, 152° | 0 W/m² | - |
| 1778028953 | 21.67° C | 78% | 1009.2 hPa | 0 mm | 0.89 m/s, 165° | 0 W/m² | - |
| 1778028649 | 21.67° C | 79% | 1009.5 hPa | 0 mm | 0 m/s | 0 W/m² | - |
| 1778028346 | 21.67° C | 79% | 1009.3 hPa | 0 mm | 0.89 m/s, 128° | 0 W/m² | - |
| 1778028047 | 21.67° C | 78% | 1009.5 hPa | 0 mm | 0.89 m/s, 149° | 0 W/m² | - |
| 1778027739 | 21.67° C | 78% | 1009.3 hPa | 0 mm | 1.34 m/s, 156° | 1 W/m² | - |
| 1778027436 | 22.22° C | 77% | 1009.4 hPa | 0 mm | 0.89 m/s, 168° | 4 W/m² | - |
| 1778027131 | 22.22° C | 77% | 1009.7 hPa | 0 mm | 0.45 m/s, 174° | 8 W/m² | - |
| 1778026827 | 22.22° C | 76% | 1009.7 hPa | 0 mm | 0.45 m/s, 296° | 9 W/m² | - |
| 1778026524 | 22.22° C | 76% | 1009.7 hPa | 0 mm | 0.45 m/s, 179° | 15 W/m² | - |
| 1778026221 | 22.22° C | 76% | 1009.4 hPa | 0 mm | 0 m/s | 20 W/m² | - |
| 1778025919 | 22.22° C | 76% | 1009.5 hPa | 0 mm | 0.45 m/s, 209° | 24 W/m² | - |
| 1778025616 | 22.22° C | 76% | 1009.5 hPa | 0 mm | 0 m/s | 24 W/m² | - |
| 1778025314 | 22.22° C | 76% | 1009.5 hPa | 0 mm | 0 m/s | 16 W/m² | - |
| 1778025010 | 22.22° C | 76% | 1009.4 hPa | 0 mm | 0.89 m/s, 176° | 17 W/m² | - |
| 1778024708 | 22.22° C | 76% | 1009.8 hPa | 0 mm | 0.45 m/s, 134° | 19 W/m² | - |
| 1778024404 | 22.22° C | 76% | 1009.5 hPa | 0 mm | 0.45 m/s, 110° | 32 W/m² | - |
| 1778024102 | 22.22° C | 77% | 1009.7 hPa | 0 mm | 0 m/s | 29 W/m² | - |
| 1778023799 | 22.22° C | 76% | 1009.9 hPa | 0 mm | 0.45 m/s, 216° | 17 W/m² | - |
| 1778023497 | 22.78° C | 75% | 1009.7 hPa | 0 mm | 0 m/s | 16 W/m² | - |
| 1778023194 | 22.78° C | 75% | 1009.8 hPa | 0 mm | 1.79 m/s, 261° | 32 W/m² | - |
| 1778022891 | 22.78° C | 75% | 1009.8 hPa | 0 mm | 0.45 m/s, 143° | 39 W/m² | - |
* Rain latest hour (hover to see other rain measurements)
** Current wind speed in m/s (hover to see current wind gust speed)